Time;durP1;ratioP1;P1;durP2;ratioP2;P2;SDS_P1;SDS_P2;PMS_P1;PMS_P2;Temp;Humidity;BMP_temperature;BMP_pressure;BME280_temperature;BME280_humidity;BME280_pressure;Samples;Min_cycle;Max_cycle;Signal;HPM_P1;HPM_P2
2022/03/20 00:02:16;;;;;;;;;;;;;;;21.27;39.11;102918.34;7276066;19;151977;-61
2022/03/20 00:04:45;;;;;;;;;;;;;;;21.34;38.57;102906.88;7274879;19;153942;-61
2022/03/20 00:07:12;;;;;;;;;;;;;;;21.40;38.89;102914.25;7276204;19;154710;-61
2022/03/20 00:09:39;;;;;;;;;;;;;;;21.36;38.99;102905.50;7274431;19;152350;-59
2022/03/20 00:12:07;;;;;;;;;;;;;;;21.36;39.11;102899.88;7272562;19;152630;-58
2022/03/20 00:14:34;;;;;;;;;;;;;;;21.37;39.29;102901.56;7281724;19;153826;-58
2022/03/20 00:17:04;;;;;;;;;;;;;;;21.39;39.41;102902.16;7283604;19;152967;-58
2022/03/20 00:19:31;;;;;;;;;;;;;;;21.40;39.06;102898.22;7281140;19;153568;-58
2022/03/20 00:21:59;;;;;;;;;;;;;;;21.42;39.30;102892.34;7281460;19;152425;-58
2022/03/20 00:24:26;;;;;;;;;;;;;;;21.42;39.48;102901.63;7279764;19;154522;-59
2022/03/20 00:26:56;;;;;;;;;;;;;;;21.45;39.28;102903.03;7283011;19;153854;-59
2022/03/20 00:29:24;;;;;;;;;;;;;;;21.45;39.56;102889.84;7280798;19;152254;-58
2022/03/20 00:31:52;;;;;;;;;;;;;;;21.47;39.49;102906.44;7283184;19;153129;-59
2022/03/20 00:34:19;;;;;;;;;;;;;;;21.47;39.44;102898.88;7281987;19;154201;-59
2022/03/20 00:36:46;;;;;;;;;;;;;;;21.48;39.75;102891.28;7289135;19;152057;-58
2022/03/20 00:39:13;;;;;;;;;;;;;;;21.48;39.62;102886.50;7277401;19;154806;-59
2022/03/20 00:41:40;;;;;;;;;;;;;;;21.49;40.16;102887.31;7283284;19;151931;-58
2022/03/20 00:44:07;;;;;;;;;;;;;;;21.49;40.04;102884.50;7281078;19;152578;-59
2022/03/20 00:46:34;;;;;;;;;;;;;;;21.48;40.03;102886.50;7281021;19;155459;-57
2022/03/20 00:49:01;;;;;;;;;;;;;;;21.49;40.05;102879.75;7280703;19;151881;-58
2022/03/20 00:51:28;;;;;;;;;;;;;;;21.47;39.89;102870.75;7279621;19;152479;-58
2022/03/20 00:53:56;;;;;;;;;;;;;;;21.48;40.29;102868.78;7279477;19;152181;-59
2022/03/20 00:56:23;;;;;;;;;;;;;;;21.47;40.13;102864.25;7283322;19;152372;-58
2022/03/20 00:58:50;;;;;;;;;;;;;;;21.46;40.04;102871.84;7285567;19;153221;-58
2022/03/20 01:01:17;;;;;;;;;;;;;;;21.45;40.28;102872.97;7280542;19;151608;-58
2022/03/20 01:03:45;;;;;;;;;;;;;;;21.45;40.38;102869.28;7279505;19;152825;-58
2022/03/20 01:06:12;;;;;;;;;;;;;;;21.45;40.21;102863.66;7280782;19;154262;-58
2022/03/20 01:08:39;;;;;;;;;;;;;;;21.43;40.72;102866.78;7282472;19;151928;-59
2022/03/20 01:11:07;;;;;;;;;;;;;;;21.43;40.42;102866.78;7278333;19;152463;-58
2022/03/20 01:13:34;;;;;;;;;;;;;;;21.43;40.52;102865.91;7281364;19;154381;-58
2022/03/20 01:16:02;;;;;;;;;;;;;;;21.41;40.61;102854.06;7279084;19;152478;-59
2022/03/20 01:18:29;;;;;;;;;;;;;;;21.39;41.12;102862.81;7282253;19;152880;-58
2022/03/20 01:20:56;;;;;;;;;;;;;;;21.38;40.89;102847.03;7285873;19;153800;-58
2022/03/20 01:23:23;;;;;;;;;;;;;;;21.34;41.01;102851.50;7280559;19;152935;-59
2022/03/20 01:25:51;;;;;;;;;;;;;;;21.33;41.32;102847.00;7281317;19;153528;-58
2022/03/20 01:28:19;;;;;;;;;;;;;;;21.33;41.17;102837.69;7279020;19;152252;-58
2022/03/20 01:30:47;;;;;;;;;;;;;;;21.30;41.35;102833.47;7280017;19;153770;-58
2022/03/20 01:33:15;;;;;;;;;;;;;;;21.28;41.17;102830.94;7277593;19;152642;-58
2022/03/20 01:35:45;;;;;;;;;;;;;;;21.26;41.30;102838.75;7281936;19;151477;-59
2022/03/20 01:38:18;;;;;;;;;;;;;;;21.24;41.61;102832.56;7281513;19;153433;-58
2022/03/20 01:40:46;;;;;;;;;;;;;;;21.24;41.63;102826.09;7286088;19;154340;-58
2022/03/20 01:43:13;;;;;;;;;;;;;;;21.21;41.61;102816.22;7279777;19;155114;-58
2022/03/20 01:45:40;;;;;;;;;;;;;;;21.21;41.73;102821.84;7277892;19;154559;-58
2022/03/20 01:48:07;;;;;;;;;;;;;;;21.21;41.55;102818.22;7281804;19;152280;-58
2022/03/20 01:50:35;;;;;;;;;;;;;;;21.20;41.85;102805.28;7278629;19;152677;-58
2022/03/20 01:53:06;;;;;;;;;;;;;;;21.18;41.94;102801.88;7278231;19;153961;-59
2022/03/20 01:55:33;;;;;;;;;;;;;;;21.17;41.99;102811.41;7278460;19;151957;-58
2022/03/20 01:58:00;;;;;;;;;;;;;;;21.13;41.87;102799.00;7277824;19;152561;-59
2022/03/20 02:00:28;;;;;;;;;;;;;;;21.13;42.32;102804.63;7276084;19;154111;-58
2022/03/20 02:02:55;;;;;;;;;;;;;;;21.15;42.52;102803.25;7288896;19;151874;-59
2022/03/20 02:05:23;;;;;;;;;;;;;;;21.12;41.89;102800.09;7278459;19;154644;-59
2022/03/20 02:07:50;;;;;;;;;;;;;;;21.11;42.30;102798.41;7277768;19;152196;-57
2022/03/20 02:10:17;;;;;;;;;;;;;;;21.11;41.82;102795.59;7281217;19;153544;-58
2022/03/20 02:12:44;;;;;;;;;;;;;;;21.08;42.30;102791.34;7278795;19;154383;-58
2022/03/20 02:15:12;;;;;;;;;;;;;;;21.07;42.47;102784.03;7278657;19;152001;-59
2022/03/20 02:17:40;;;;;;;;;;;;;;;21.06;42.55;102787.13;7280654;19;153652;-59
2022/03/20 02:20:08;;;;;;;;;;;;;;;21.04;42.44;102789.34;7277564;19;153549;-58
2022/03/20 02:22:38;;;;;;;;;;;;;;;21.02;42.67;102786.81;7280196;19;151918;-60
2022/03/20 02:25:05;;;;;;;;;;;;;;;20.98;42.47;102782.00;7286756;19;152663;-59
2022/03/20 02:27:38;;;;;;;;;;;;;;;21.01;42.76;102781.44;7281095;19;152282;-58
2022/03/20 02:30:12;;;;;;;;;;;;;;;20.98;42.50;102791.28;7278993;19;155335;-58
2022/03/20 02:32:42;;;;;;;;;;;;;;;20.95;42.50;102777.72;7277155;19;156002;-58
2022/03/20 02:35:14;;;;;;;;;;;;;;;20.98;42.64;102782.84;7278651;19;151757;-59
2022/03/20 02:37:42;;;;;;;;;;;;;;;20.95;42.52;102774.91;7276908;19;152857;-59
2022/03/20 02:40:11;;;;;;;;;;;;;;;20.93;42.54;102788.41;7274115;19;153831;-58
2022/03/20 02:42:40;;;;;;;;;;;;;;;20.94;42.33;102769.59;7277087;19;152206;-58
2022/03/20 02:45:09;;;;;;;;;;;;;;;20.92;42.55;102769.00;7277263;19;151944;-59
2022/03/20 02:47:38;;;;;;;;;;;;;;;20.89;42.50;102761.97;7284090;19;153368;-58
2022/03/20 02:50:09;;;;;;;;;;;;;;;20.87;42.14;102764.19;7277469;19;153246;-58
2022/03/20 02:52:39;;;;;;;;;;;;;;;20.89;42.64;102756.34;7275745;19;153863;-58
2022/03/20 02:55:06;;;;;;;;;;;;;;;20.88;42.35;102750.97;7277673;19;151905;-59
2022/03/20 02:57:34;;;;;;;;;;;;;;;20.84;42.55;102754.34;7276712;19;154023;-58
2022/03/20 03:00:04;;;;;;;;;;;;;;;20.84;42.56;102756.28;7276800;19;153465;-57
2022/03/20 03:02:34;;;;;;;;;;;;;;;20.82;42.54;102747.25;7277498;19;152230;-58
2022/03/20 03:05:02;;;;;;;;;;;;;;;20.79;42.51;102743.03;7276935;19;152122;-58
2022/03/20 03:07:30;;;;;;;;;;;;;;;20.80;42.51;102743.91;7275506;19;154005;-58
2022/03/20 03:12:28;;;;;;;;;;;;;;;20.78;42.49;102740.50;7274272;19;153118;-59
2022/03/20 03:19:55;;;;;;;;;;;;;;;20.74;42.71;102733.72;7276199;19;153189;-59
2022/03/20 03:22:26;;;;;;;;;;;;;;;20.72;42.75;102728.34;7276320;19;152597;-59
2022/03/20 03:24:54;;;;;;;;;;;;;;;20.71;42.89;102732.28;7279209;19;153474;-58
2022/03/20 03:27:21;;;;;;;;;;;;;;;20.71;42.76;102723.03;7275721;19;154191;-58
2022/03/20 03:29:48;;;;;;;;;;;;;;;20.71;43.11;102725.81;7277877;19;153035;-59
2022/03/20 03:32:15;;;;;;;;;;;;;;;20.70;43.00;102727.78;7282669;19;153244;-59
2022/03/20 03:37:12;;;;;;;;;;;;;;;20.68;42.76;102724.38;7278562;19;152619;-59
2022/03/20 03:39:39;;;;;;;;;;;;;;;20.65;42.82;102715.66;7275548;19;153402;-58
2022/03/20 03:42:07;;;;;;;;;;;;;;;20.66;42.78;102711.72;7276386;19;152184;-58
2022/03/20 03:44:34;;;;;;;;;;;;;;;20.64;43.04;102714.78;7275142;19;153656;-58
2022/03/20 03:47:01;;;;;;;;;;;;;;;20.64;43.37;102711.13;7273632;19;154173;-57
2022/03/20 03:49:28;;;;;;;;;;;;;;;20.63;43.03;102703.81;7276632;19;152293;-57
2022/03/20 03:51:55;;;;;;;;;;;;;;;20.62;43.44;102707.75;7289696;19;153573;-57
2022/03/20 03:54:22;;;;;;;;;;;;;;;20.60;43.20;102693.97;7283192;19;152083;-59
2022/03/20 03:56:50;;;;;;;;;;;;;;;20.59;43.39;102697.03;7282633;19;152832;-58
2022/03/20 03:59:17;;;;;;;;;;;;;;;20.57;43.20;102690.88;7279997;19;154202;-58
2022/03/20 04:01:44;;;;;;;;;;;;;;;20.57;43.21;102688.91;7284616;19;151664;-58
2022/03/20 04:04:12;;;;;;;;;;;;;;;20.56;43.17;102690.00;7283661;19;153401;-58
2022/03/20 04:06:39;;;;;;;;;;;;;;;20.55;43.49;102691.13;7281519;19;153552;-58
2022/03/20 04:09:06;;;;;;;;;;;;;;;20.52;43.58;102688.84;7281961;19;152310;-58
2022/03/20 04:11:33;;;;;;;;;;;;;;;20.47;43.80;102683.19;7279410;19;153584;-58
2022/03/20 04:14:00;;;;;;;;;;;;;;;20.51;43.53;102692.75;7288957;19;153453;-58
2022/03/20 04:16:27;;;;;;;;;;;;;;;20.46;43.57;102687.09;7283279;19;153825;-59
2022/03/20 04:18:54;;;;;;;;;;;;;;;20.43;43.84;102682.03;7280391;19;153285;-59
2022/03/20 04:21:21;;;;;;;;;;;;;;;20.45;43.80;102684.53;7279207;19;152106;-58
2022/03/20 04:23:49;;;;;;;;;;;;;;;20.42;43.69;102683.13;7283737;19;153333;-59
2022/03/20 04:26:18;;;;;;;;;;;;;;;20.38;43.94;102684.78;7279979;19;153378;-59
2022/03/20 04:28:47;;;;;;;;;;;;;;;20.36;43.64;102681.38;7281373;19;151506;-58
2022/03/20 04:31:15;;;;;;;;;;;;;;;20.33;44.06;102684.72;7281222;19;152539;-58
2022/03/20 04:33:43;;;;;;;;;;;;;;;20.30;43.96;102679.66;7281291;19;154677;-59
2022/03/20 04:36:10;;;;;;;;;;;;;;;20.29;43.77;102687.19;7291393;19;152390;-58
2022/03/20 04:38:37;;;;;;;;;;;;;;;20.25;43.90;102679.56;7279741;19;156416;-60
2022/03/20 04:41:05;;;;;;;;;;;;;;;20.24;44.21;102686.28;7281314;19;151838;-60
2022/03/20 04:43:32;;;;;;;;;;;;;;;20.21;43.75;102682.06;7277866;19;153096;-60
2022/03/20 04:45:59;;;;;;;;;;;;;;;20.21;43.95;102684.84;7281557;19;152554;-59
2022/03/20 05:00:58;;;;;;;;;;;;;;;20.14;44.43;102672.13;7279697;19;152529;-58
2022/03/20 05:03:25;;;;;;;;;;;;;;;20.14;44.16;102666.50;7279798;19;153086;-60
2022/03/20 05:05:52;;;;;;;;;;;;;;;20.14;44.38;102661.75;7281467;19;153989;-59
2022/03/20 05:08:19;;;;;;;;;;;;;;;20.11;44.40;102665.09;7282679;19;152262;-60
2022/03/20 05:13:19;;;;;;;;;;;;;;;20.09;44.32;102663.66;7279068;19;154123;-59
2022/03/20 05:15:46;;;;;;;;;;;;;;;20.06;44.73;102659.41;7279343;19;152090;-58
2022/03/20 05:18:14;;;;;;;;;;;;;;;20.06;44.28;102652.97;7280319;19;153532;-58
2022/03/20 05:20:44;;;;;;;;;;;;;;;20.04;44.37;102649.56;7284914;19;154090;-58
2022/03/20 05:23:11;;;;;;;;;;;;;;;20.03;44.63;102651.53;7282896;19;152872;-58
2022/03/20 05:25:38;;;;;;;;;;;;;;;20.00;44.87;102657.66;7278292;19;154762;-59
2022/03/20 05:28:05;;;;;;;;;;;;;;;20.01;44.64;102652.91;7281963;19;151732;-58
2022/03/20 05:30:33;;;;;;;;;;;;;;;19.99;44.52;102651.19;7279079;19;152875;-59
2022/03/20 05:33:00;;;;;;;;;;;;;;;19.99;44.38;102648.38;7279385;19;153517;-58
2022/03/20 05:35:28;;;;;;;;;;;;;;;19.98;44.41;102646.72;7280191;19;151816;-60
2022/03/20 05:37:55;;;;;;;;;;;;;;;19.98;44.48;102646.72;7279413;19;153352;-59
2022/03/20 05:40:22;;;;;;;;;;;;;;;19.97;44.74;102650.63;7277954;19;153868;-58
2022/03/20 05:42:49;;;;;;;;;;;;;;;19.98;44.83;102655.13;7288588;19;151909;-58
2022/03/20 05:45:16;;;;;;;;;;;;;;;19.99;45.09;102641.94;7278780;19;153859;-56
2022/03/20 05:47:43;;;;;;;;;;;;;;;20.01;44.65;102645.34;7279537;19;152963;-57
2022/03/20 05:50:10;;;;;;;;;;;;;;;20.02;44.93;102649.00;7279884;19;153569;-57
2022/03/20 05:52:38;;;;;;;;;;;;;;;19.96;44.62;102648.06;7277535;19;153600;-58
2022/03/20 05:55:05;;;;;;;;;;;;;;;19.94;44.60;102651.13;7279711;19;152316;-57
2022/03/20 06:00:06;;;;;;;;;;;;;;;19.89;44.66;102653.91;7279435;19;153581;-57
2022/03/20 06:02:33;;;;;;;;;;;;;;;19.88;44.86;102649.41;7286591;19;151767;-58
2022/03/20 06:05:00;;;;;;;;;;;;;;;19.88;44.48;102643.78;7277341;19;153384;-57
2022/03/20 06:07:27;;;;;;;;;;;;;;;19.91;44.90;102648.88;7280581;19;151792;-58
2022/03/20 06:09:54;;;;;;;;;;;;;;;19.85;45.01;102651.88;7281425;19;153299;-58
2022/03/20 06:12:21;;;;;;;;;;;;;;;19.82;44.86;102664.47;7273286;19;153383;-58
2022/03/20 06:14:48;;;;;;;;;;;;;;;19.82;44.91;102663.63;7279294;19;152508;-58
2022/03/20 06:17:17;;;;;;;;;;;;;;;19.86;44.86;102656.38;7279164;19;153669;-58
2022/03/20 06:19:46;;;;;;;;;;;;;;;19.80;44.81;102655.47;7279790;19;154259;-58
2022/03/20 06:22:14;;;;;;;;;;;;;;;19.76;44.86;102662.69;7279653;19;152062;-57
2022/03/20 06:24:41;;;;;;;;;;;;;;;19.76;45.02;102656.28;7287734;19;153451;-58
2022/03/20 06:27:08;;;;;;;;;;;;;;;19.74;45.13;102653.72;7281238;19;151948;-58
2022/03/20 06:29:35;;;;;;;;;;;;;;;19.73;44.91;102652.00;7281608;19;153409;-59
2022/03/20 06:32:02;;;;;;;;;;;;;;;19.71;45.14;102648.63;7279613;19;154198;-58
2022/03/20 06:34:30;;;;;;;;;;;;;;;19.70;44.83;102654.50;7278514;19;152495;-58
2022/03/20 06:36:59;;;;;;;;;;;;;;;19.69;44.77;102650.84;7279839;19;152814;-58
2022/03/20 06:39:26;;;;;;;;;;;;;;;19.66;44.90;102648.56;7277208;19;152660;-58
2022/03/20 06:41:53;;;;;;;;;;;;;;;19.68;45.09;102653.91;7274552;19;151874;-57
2022/03/20 06:44:21;;;;;;;;;;;;;;;19.68;44.81;102662.31;7278441;19;152755;-58
2022/03/20 06:46:48;;;;;;;;;;;;;;;19.78;45.01;102656.84;7283146;19;154027;-58
2022/03/20 06:49:16;;;;;;;;;;;;;;;19.79;45.22;102655.72;7279893;19;153827;-58
2022/03/20 06:51:43;;;;;;;;;;;;;;;19.84;45.42;102661.41;7276218;19;154422;-58
2022/03/20 06:54:10;;;;;;;;;;;;;;;19.88;45.54;102654.16;7276463;19;151997;-58
2022/03/20 06:56:37;;;;;;;;;;;;;;;19.93;45.17;102655.06;7279587;19;153534;-57
2022/03/20 06:59:04;;;;;;;;;;;;;;;19.98;45.24;102654.28;7278355;19;153221;-58
2022/03/20 07:01:31;;;;;;;;;;;;;;;20.02;45.13;102658.25;7275172;19;151904;-58
2022/03/20 07:03:58;;;;;;;;;;;;;;;20.09;45.67;102658.88;7279480;19;152791;-58
2022/03/20 07:06:27;;;;;;;;;;;;;;;20.16;45.67;102661.50;7275022;19;153371;-58
2022/03/20 07:08:59;;;;;;;;;;;;;;;20.22;45.58;102664.06;7286661;19;152204;-59
2022/03/20 07:13:57;;;;;;;;;;;;;;;20.45;45.08;102665.75;7279062;19;151948;-58
2022/03/20 07:16:29;;;;;;;;;;;;;;;20.50;45.61;102662.13;7277249;19;154177;-57
2022/03/20 07:18:56;;;;;;;;;;;;;;;20.53;44.89;102662.47;7276845;19;154089;-58
2022/03/20 07:21:24;;;;;;;;;;;;;;;20.57;44.56;102655.19;7277703;19;151917;-58
2022/03/20 07:23:54;;;;;;;;;;;;;;;20.64;44.48;102660.59;7276783;19;154105;-58
2022/03/20 07:31:36;;;;;;;;;;;;;;;20.81;44.59;102667.75;7299648;19;152911;-58
2022/03/20 07:34:04;;;;;;;;;;;;;;;20.86;44.39;102659.38;7292657;19;152821;-58
2022/03/20 07:36:31;;;;;;;;;;;;;;;20.92;44.54;102660.25;7293457;19;153581;-59
2022/03/20 07:38:58;;;;;;;;;;;;;;;21.00;44.69;102662.56;7289666;19;154568;-59
2022/03/20 07:41:25;;;;;;;;;;;;;;;21.06;44.51;102657.84;7291105;19;152085;-59
2022/03/20 07:43:52;;;;;;;;;;;;;;;21.13;44.14;102661.28;7290909;19;152644;-62
2022/03/20 07:46:19;;;;;;;;;;;;;;;21.19;44.21;102661.03;7288890;19;154336;-58
2022/03/20 07:48:47;;;;;;;;;;;;;;;21.25;44.42;102656.31;7291711;19;152102;-58
2022/03/20 07:51:17;;;;;;;;;;;;;;;21.31;44.40;102652.38;7290095;19;152699;-58
2022/03/20 07:53:44;;;;;;;;;;;;;;;21.37;43.90;102659.75;7295373;19;151881;-58
2022/03/20 07:56:12;;;;;;;;;;;;;;;21.42;43.86;102656.97;7289386;19;153392;-59
2022/03/20 07:58:39;;;;;;;;;;;;;;;21.47;43.90;102654.19;7287810;19;153438;-58
2022/03/20 08:01:06;;;;;;;;;;;;;;;21.53;43.91;102647.44;7288978;19;151805;-58
2022/03/20 08:03:33;;;;;;;;;;;;;;;21.60;43.46;102647.22;7291226;19;152022;-58
2022/03/20 08:06:00;;;;;;;;;;;;;;;21.63;43.81;102646.66;7290593;19;153354;-58
2022/03/20 08:08:27;;;;;;;;;;;;;;;21.69;43.25;102642.75;7289143;19;151796;-58
2022/03/20 08:10:54;;;;;;;;;;;;;;;21.73;43.30;102644.72;7290428;19;154017;-57
2022/03/20 08:13:21;;;;;;;;;;;;;;;21.76;43.35;102637.69;7296292;19;155277;-58
2022/03/20 08:15:48;;;;;;;;;;;;;;;21.81;43.24;102639.69;7288354;19;153632;-58
2022/03/20 08:18:16;;;;;;;;;;;;;;;21.83;43.14;102634.63;7288469;19;153429;-58
2022/03/20 08:20:43;;;;;;;;;;;;;;;21.87;42.70;102633.81;7291725;19;151490;-58
2022/03/20 08:23:10;;;;;;;;;;;;;;;21.89;43.18;102637.22;7286582;19;152189;-58
2022/03/20 08:25:38;;;;;;;;;;;;;;;21.92;43.24;102638.59;7287958;19;154382;-59
2022/03/20 08:28:07;;;;;;;;;;;;;;;21.94;43.04;102633.59;7288803;19;152437;-58
2022/03/20 08:30:34;;;;;;;;;;;;;;;21.96;42.98;102640.63;7287971;19;153484;-58
2022/03/20 08:33:01;;;;;;;;;;;;;;;21.97;42.62;102633.88;7288008;19;153300;-58
2022/03/20 08:35:28;;;;;;;;;;;;;;;21.99;42.78;102633.56;7294993;19;151768;-58
2022/03/20 08:37:56;;;;;;;;;;;;;;;22.00;42.33;102629.66;7278756;19;154211;-58
2022/03/20 08:40:23;;;;;;;;;;;;;;;22.02;42.52;102625.44;7280557;19;152064;-59
2022/03/20 08:42:53;;;;;;;;;;;;;;;22.04;42.51;102627.97;7279704;19;152459;-58
2022/03/20 08:45:21;;;;;;;;;;;;;;;22.05;42.48;102624.03;7282843;19;153529;-58
2022/03/20 08:47:49;;;;;;;;;;;;;;;22.06;42.66;102626.59;7282897;19;152018;-58
2022/03/20 08:50:17;;;;;;;;;;;;;;;22.06;42.59;102620.94;7281047;19;154016;-58
2022/03/20 08:52:46;;;;;;;;;;;;;;;22.07;42.70;102625.47;7282130;19;153959;-57
2022/03/20 08:55:13;;;;;;;;;;;;;;;22.08;42.30;102615.03;7282509;19;151853;-58
2022/03/20 08:57:41;;;;;;;;;;;;;;;22.08;42.51;102615.03;7289590;19;153143;-58
2022/03/20 09:00:10;;;;;;;;;;;;;;;22.08;42.84;102613.06;7280611;19;152004;-59
2022/03/20 09:02:37;;;;;;;;;;;;;;;22.08;43.04;102606.56;7279145;19;152669;-58
2022/03/20 09:05:05;;;;;;;;;;;;;;;22.09;43.10;102608.28;7280306;19;153534;-59
2022/03/20 09:07:32;;;;;;;;;;;;;;;22.10;43.14;102609.97;7280268;19;152172;-59
2022/03/20 09:09:59;;;;;;;;;;;;;;;22.12;42.89;102604.94;7279594;19;153292;-61
2022/03/20 09:12:27;;;;;;;;;;;;;;;22.17;43.10;102602.94;7276882;19;154144;-57
2022/03/20 09:14:54;;;;;;;;;;;;;;;22.14;42.97;102606.31;7281976;19;152214;-58
2022/03/20 09:19:55;;;;;;;;;;;;;;;22.05;40.63;102609.97;7286823;19;153522;-57
2022/03/20 09:22:22;;;;;;;;;;;;;;;21.70;35.03;102613.50;7278820;19;152824;-57
2022/03/20 09:24:49;;;;;;;;;;;;;;;21.35;33.91;102610.53;7279484;19;155734;-59
2022/03/20 09:27:16;;;;;;;;;;;;;;;21.17;35.02;102607.06;7280062;19;152059;-57
2022/03/20 09:29:43;;;;;;;;;;;;;;;21.21;34.57;102598.94;7282271;19;152917;-57
2022/03/20 09:32:11;;;;;;;;;;;;;;;21.24;34.87;102587.13;7278202;19;152466;-57
2022/03/20 09:34:38;;;;;;;;;;;;;;;21.36;35.27;102592.53;7282343;19;151855;-56
2022/03/20 09:37:05;;;;;;;;;;;;;;;21.42;35.62;102592.28;7282434;19;154276;-57
2022/03/20 09:39:32;;;;;;;;;;;;;;;21.44;35.87;102583.59;7279682;19;155844;-57
2022/03/20 09:42:02;;;;;;;;;;;;;;;21.47;36.44;102585.84;7289209;19;152346;-57
2022/03/20 09:44:29;;;;;;;;;;;;;;;21.50;36.54;102582.47;7277741;19;154284;-56
2022/03/20 09:46:57;;;;;;;;;;;;;;;21.53;36.94;102579.13;7281280;19;152283;-57
2022/03/20 09:49:25;;;;;;;;;;;;;;;21.58;37.00;102582.78;7282344;19;153847;-56
2022/03/20 09:51:52;;;;;;;;;;;;;;;21.61;37.00;102581.41;7279792;19;153936;-57
2022/03/20 09:54:20;;;;;;;;;;;;;;;21.64;37.07;102569.59;7280002;19;152247;-58
2022/03/20 09:56:52;;;;;;;;;;;;;;;21.70;37.39;102571.28;7281157;19;153321;-57
2022/03/20 09:59:19;;;;;;;;;;;;;;;21.73;37.36;102563.13;7278417;19;154153;-57
2022/03/20 10:01:46;;;;;;;;;;;;;;;21.77;37.64;102559.75;7286238;19;153308;-58
2022/03/20 10:04:15;;;;;;;;;;;;;;;21.81;37.68;102556.13;7280327;19;153939;-58
2022/03/20 10:06:42;;;;;;;;;;;;;;;21.87;37.46;102551.34;7278638;19;151873;-57
2022/03/20 10:09:11;;;;;;;;;;;;;;;21.93;37.56;102550.28;7279213;19;151963;-57
2022/03/20 10:11:41;;;;;;;;;;;;;;;21.92;37.27;102548.53;7276119;19;154227;-57
2022/03/20 10:14:09;;;;;;;;;;;;;;;21.95;37.38;102536.75;7277751;19;152205;-57
2022/03/20 10:16:38;;;;;;;;;;;;;;;21.99;37.45;102532.25;7280243;19;152569;-57
2022/03/20 10:19:08;;;;;;;;;;;;;;;22.01;37.11;102527.19;7276852;19;153507;-57
2022/03/20 10:21:38;;;;;;;;;;;;;;;22.05;37.31;102526.38;7280379;19;151875;-57
2022/03/20 10:24:14;;;;;;;;;;;;;;;22.08;37.23;102516.50;7285583;19;152921;-57
2022/03/20 10:26:41;;;;;;;;;;;;;;;22.14;37.34;102523.84;7279307;19;152599;-57
2022/03/20 10:29:11;;;;;;;;;;;;;;;22.18;37.34;102520.16;7280250;19;153360;-56
2022/03/20 10:31:46;;;;;;;;;;;;;;;22.21;37.39;102510.34;7277124;19;154792;-58
2022/03/20 10:34:14;;;;;;;;;;;;;;;22.25;37.36;102517.09;7279007;19;151968;-57
2022/03/20 10:36:42;;;;;;;;;;;;;;;22.29;36.99;102508.91;7277984;19;153102;-59
2022/03/20 10:39:11;;;;;;;;;;;;;;;22.32;37.21;102509.19;7277086;19;153836;-59
2022/03/20 10:41:39;;;;;;;;;;;;;;;22.35;36.96;102504.97;7278801;19;151916;-58
2022/03/20 10:44:27;;;;;;;;;;;;;;;22.37;37.26;102503.56;7278030;19;155541;-57
2022/03/20 10:47:02;;;;;;;;;;;;;;;22.40;37.12;102500.16;7283704;19;152470;-59
2022/03/20 10:49:29;;;;;;;;;;;;;;;22.42;36.72;102512.00;7279907;19;153517;-57
2022/03/20 10:52:02;;;;;;;;;;;;;;;22.44;36.82;102506.91;7276311;19;154693;-57
2022/03/20 10:54:32;;;;;;;;;;;;;;;22.46;37.11;102501.00;7277036;19;151997;-57
2022/03/20 10:57:00;;;;;;;;;;;;;;;22.48;36.65;102499.59;7278559;19;152104;-58
2022/03/20 10:59:30;;;;;;;;;;;;;;;22.49;36.72;102492.81;7275564;19;153402;-57
2022/03/20 11:01:58;;;;;;;;;;;;;;;22.50;36.90;102488.88;7277530;19;152116;-58
2022/03/20 11:04:25;;;;;;;;;;;;;;;22.50;36.45;102500.16;7278159;19;153833;-57
2022/03/20 11:06:55;;;;;;;;;;;;;;;22.45;36.76;102497.34;7276490;19;153505;-58
2022/03/20 11:09:28;;;;;;;;;;;;;;;22.44;37.19;102497.66;7285098;19;152981;-58
2022/03/20 11:11:57;;;;;;;;;;;;;;;22.47;37.34;102499.88;7275548;19;152800;-58
2022/03/20 11:14:26;;;;;;;;;;;;;;;22.47;37.52;102497.91;7277831;19;151856;-58
2022/03/20 11:17:01;;;;;;;;;;;;;;;22.47;37.49;102495.09;7277477;19;154259;-60
2022/03/20 11:19:30;;;;;;;;;;;;;;;22.49;37.90;102494.78;7277840;19;152566;-58
2022/03/20 11:22:06;;;;;;;;;;;;;;;22.59;37.64;102495.63;7278696;19;152116;-59
2022/03/20 11:24:35;;;;;;;;;;;;;;;22.61;37.04;102495.34;7277706;19;152953;-58
2022/03/20 11:27:08;;;;;;;;;;;;;;;22.58;37.02;102487.44;7275404;19;154011;-59
2022/03/20 11:29:43;;;;;;;;;;;;;;;22.53;36.59;102493.94;7276487;19;151803;-57
2022/03/20 11:32:11;;;;;;;;;;;;;;;22.55;37.19;102488.88;7284090;19;152401;-58
2022/03/20 11:34:38;;;;;;;;;;;;;;;22.56;37.37;102484.94;7276554;19;152339;-58
2022/03/20 11:37:08;;;;;;;;;;;;;;;22.54;37.22;102487.19;7279034;19;155297;-58
2022/03/20 11:39:36;;;;;;;;;;;;;;;22.54;37.15;102478.72;7275248;19;152608;-57
2022/03/20 11:42:06;;;;;;;;;;;;;;;22.52;37.36;102468.88;7278836;19;152051;-58
2022/03/20 11:44:34;;;;;;;;;;;;;;;22.51;37.68;102472.81;7275708;19;152660;-58
2022/03/20 11:47:04;;;;;;;;;;;;;;;22.49;37.65;102475.91;7276452;19;153690;-58
2022/03/20 11:49:32;;;;;;;;;;;;;;;22.48;37.51;102467.78;7279234;19;152558;-57
2022/03/20 11:52:02;;;;;;;;;;;;;;;22.49;37.50;102466.63;7275969;19;154011;-57
2022/03/20 11:54:30;;;;;;;;;;;;;;;22.49;37.69;102469.44;7285048;19;153449;-58
2022/03/20 11:56:58;;;;;;;;;;;;;;;22.52;38.15;102454.81;7276732;19;152562;-58
2022/03/20 11:59:29;;;;;;;;;;;;;;;22.53;37.70;102460.13;7275102;19;154990;-58
2022/03/20 12:01:59;;;;;;;;;;;;;;;22.58;38.21;102462.09;7278162;19;151915;-58
2022/03/20 12:04:33;;;;;;;;;;;;;;;22.62;37.70;102461.22;7275464;19;153006;-58
2022/03/20 12:07:04;;;;;;;;;;;;;;;22.67;37.86;102465.19;7277179;19;155862;-58
2022/03/20 12:09:39;;;;;;;;;;;;;;;22.72;38.06;102459.56;7276249;19;152090;-58
2022/03/20 12:12:08;;;;;;;;;;;;;;;22.81;38.12;102446.56;7276451;19;152760;-58
2022/03/20 12:14:35;;;;;;;;;;;;;;;;;;7290444;19;153502;-58
2022/03/20 12:17:02;;;;;;;;;;;;;;;22.91;38.02;102438.06;7282928;19;183076;-58
2022/03/20 12:19:33;;;;;;;;;;;;;;;22.96;38.05;102436.06;7281092;19;154789;-57
2022/03/20 12:22:02;;;;;;;;;;;;;;;23.01;38.16;102438.03;7281530;19;151998;-56
2022/03/20 12:24:32;;;;;;;;;;;;;;;23.04;38.18;102429.81;7280375;19;155741;-58
2022/03/20 12:27:07;;;;;;;;;;;;;;;23.08;37.85;102432.91;7283238;19;154557;-58
2022/03/20 12:29:36;;;;;;;;;;;;;;;23.08;37.81;102432.09;7283694;19;151817;-59
2022/03/20 12:32:05;;;;;;;;;;;;;;;23.11;37.91;102428.69;7281523;19;153819;-58
2022/03/20 12:34:32;;;;;;;;;;;;;;;23.15;37.88;102424.16;7281031;19;152703;-58
2022/03/20 12:37:03;;;;;;;;;;;;;;;23.17;37.88;102419.88;7288842;19;152065;-57
2022/03/20 12:39:33;;;;;;;;;;;;;;;23.21;37.67;102423.00;7282664;19;155007;-57
2022/03/20 12:42:00;;;;;;;;;;;;;;;23.23;38.03;102427.19;7281399;19;151780;-58
2022/03/20 12:44:28;;;;;;;;;;;;;;;23.20;37.71;102419.31;7281738;19;154244;-58
2022/03/20 12:46:55;;;;;;;;;;;;;;;23.19;37.75;102419.59;7281337;19;153491;-58
2022/03/20 12:49:23;;;;;;;;;;;;;;;23.22;37.84;102419.84;7281804;19;152468;-58
2022/03/20 12:51:52;;;;;;;;;;;;;;;23.25;37.95;102426.91;7280728;19;153434;-58
2022/03/20 12:54:20;;;;;;;;;;;;;;;23.20;38.10;102419.31;7280343;19;154100;-57
2022/03/20 12:56:50;;;;;;;;;;;;;;;23.17;37.96;102413.44;7282165;19;151965;-58
2022/03/20 12:59:20;;;;;;;;;;;;;;;23.19;37.52;102417.63;7288254;19;154431;-58
2022/03/20 13:01:47;;;;;;;;;;;;;;;23.18;37.62;102407.47;7283010;19;152323;-58
2022/03/20 13:04:15;;;;;;;;;;;;;;;23.18;37.73;102401.84;7280654;19;153115;-57
2022/03/20 13:06:43;;;;;;;;;;;;;;;23.20;36.05;102393.09;7280462;19;153641;-57
2022/03/20 13:09:14;;;;;;;;;;;;;;;23.10;36.10;102395.97;7283472;19;152088;-56
2022/03/20 13:11:53;;;;;;;;;;;;;;;23.04;35.94;102396.00;7278525;19;154051;-56